sensor_id;sensor_type;location;lat;lon;timestamp;pressure;altitude;pressure_sealevel;temperature;humidity
57801;BME280;43627;42.728;23.256;2023-05-19T00:02:24;95201.41;;;10.22;100.00
57801;BME280;43627;42.728;23.256;2023-05-19T00:04:53;95219.44;;;10.38;100.00
57801;BME280;43627;42.728;23.256;2023-05-19T00:07:22;95216.56;;;10.33;100.00
57801;BME280;43627;42.728;23.256;2023-05-19T00:09:54;95231.28;;;10.44;100.00
57801;BME280;43627;42.728;23.256;2023-05-19T00:12:22;95185.50;;;10.21;100.00
57801;BME280;43627;42.728;23.256;2023-05-19T00:14:49;95195.66;;;10.20;100.00
57801;BME280;43627;42.728;23.256;2023-05-19T00:17:16;95145.81;;;9.92;100.00
57801;BME280;43627;42.728;23.256;2023-05-19T00:19:43;95225.38;;;10.46;100.00
57801;BME280;43627;42.728;23.256;2023-05-19T00:22:11;95228.25;;;10.42;100.00
57801;BME280;43627;42.728;23.256;2023-05-19T00:24:38;95204.16;;;10.32;100.00
57801;BME280;43627;42.728;23.256;2023-05-19T00:27:05;95199.44;;;10.32;100.00
57801;BME280;43627;42.728;23.256;2023-05-19T00:29:32;95192.34;;;10.35;100.00
57801;BME280;43627;42.728;23.256;2023-05-19T00:32:00;95129.34;;;9.78;100.00
57801;BME280;43627;42.728;23.256;2023-05-19T00:34:27;95215.97;;;10.38;100.00
57801;BME280;43627;42.728;23.256;2023-05-19T00:36:54;95180.03;;;10.02;100.00
57801;BME280;43627;42.728;23.256;2023-05-19T00:39:21;95211.56;;;10.22;100.00
57801;BME280;43627;42.728;23.256;2023-05-19T00:41:48;95125.19;;;9.55;100.00
57801;BME280;43627;42.728;23.256;2023-05-19T00:44:14;95210.78;;;10.12;100.00
57801;BME280;43627;42.728;23.256;2023-05-19T00:46:42;95208.03;;;10.03;100.00
57801;BME280;43627;42.728;23.256;2023-05-19T00:49:09;95208.03;;;10.03;100.00
57801;BME280;43627;42.728;23.256;2023-05-19T00:51:36;95205.00;;;9.92;100.00
57801;BME280;43627;42.728;23.256;2023-05-19T00:54:03;95152.25;;;9.40;100.00
57801;BME280;43627;42.728;23.256;2023-05-19T00:56:30;95200.44;;;9.80;100.00
57801;BME280;43627;42.728;23.256;2023-05-19T00:58:57;95150.59;;;9.52;100.00
57801;BME280;43627;42.728;23.256;2023-05-19T01:01:24;95161.50;;;9.52;100.00
57801;BME280;43627;42.728;23.256;2023-05-19T01:03:52;95196.94;;;9.70;100.00
57801;BME280;43627;42.728;23.256;2023-05-19T01:06:22;95209.34;;;9.71;100.00
57801;BME280;43627;42.728;23.256;2023-05-19T01:08:50;95199.00;;;9.57;100.00
57801;BME280;43627;42.728;23.256;2023-05-19T01:11:17;95203.13;;;9.61;100.00
57801;BME280;43627;42.728;23.256;2023-05-19T01:13:44;95201.41;;;9.55;100.00
57801;BME280;43627;42.728;23.256;2023-05-19T01:16:13;95207.00;;;9.51;100.00
57801;BME280;43627;42.728;23.256;2023-05-19T01:28:23;95201.34;;;9.36;100.00
57801;BME280;43627;42.728;23.256;2023-05-19T01:30:52;95221.16;;;9.37;100.00
57801;BME280;43627;42.728;23.256;2023-05-19T01:33:23;95193.53;;;9.07;100.00
57801;BME280;43627;42.728;23.256;2023-05-19T01:35:52;95118.16;;;8.77;100.00
57801;BME280;43627;42.728;23.256;2023-05-19T01:38:19;95212.84;;;9.31;100.00
57801;BME280;43627;42.728;23.256;2023-05-19T01:40:48;95186.44;;;9.10;100.00
57801;BME280;43627;42.728;23.256;2023-05-19T01:43:20;95174.78;;;9.00;100.00
57801;BME280;43627;42.728;23.256;2023-05-19T01:45:47;95210.88;;;9.32;100.00
57801;BME280;43627;42.728;23.256;2023-05-19T01:48:14;95211.47;;;9.36;100.00
57801;BME280;43627;42.728;23.256;2023-05-19T01:50:42;95211.63;;;9.32;100.00
57801;BME280;43627;42.728;23.256;2023-05-19T01:53:12;95197.38;;;9.19;100.00
57801;BME280;43627;42.728;23.256;2023-05-19T01:55:47;95152.72;;;8.76;100.00
57801;BME280;43627;42.728;23.256;2023-05-19T01:58:28;95214.16;;;9.27;100.00
57801;BME280;43627;42.728;23.256;2023-05-19T02:06:36;95215.78;;;9.15;100.00
57801;BME280;43627;42.728;23.256;2023-05-19T02:09:38;95212.59;;;9.16;100.00
57801;BME280;43627;42.728;23.256;2023-05-19T02:12:25;95155.84;;;8.66;100.00
57801;BME280;43627;42.728;23.256;2023-05-19T02:17:35;95214.63;;;8.94;100.00
57801;BME280;43627;42.728;23.256;2023-05-19T02:20:04;95207.03;;;8.89;100.00
57801;BME280;43627;42.728;23.256;2023-05-19T02:22:57;95230.41;;;9.08;100.00
57801;BME280;43627;42.728;23.256;2023-05-19T02:26:13;95232.81;;;9.06;100.00
57801;BME280;43627;42.728;23.256;2023-05-19T02:29:26;95224.69;;;9.15;100.00
57801;BME280;43627;42.728;23.256;2023-05-19T02:32:14;95100.25;;;8.36;100.00
57801;BME280;43627;42.728;23.256;2023-05-19T02:35:10;95236.53;;;9.22;100.00
57801;BME280;43627;42.728;23.256;2023-05-19T02:37:40;95193.75;;;8.91;100.00
57801;BME280;43627;42.728;23.256;2023-05-19T02:40:29;95206.09;;;9.14;100.00
57801;BME280;43627;42.728;23.256;2023-05-19T02:42:57;95191.09;;;9.00;100.00
57801;BME280;43627;42.728;23.256;2023-05-19T02:45:23;95229.44;;;9.24;100.00
57801;BME280;43627;42.728;23.256;2023-05-19T02:47:51;95225.34;;;9.20;100.00
57801;BME280;43627;42.728;23.256;2023-05-19T02:50:17;95233.91;;;9.18;100.00
57801;BME280;43627;42.728;23.256;2023-05-19T02:52:44;95224.25;;;9.17;100.00
57801;BME280;43627;42.728;23.256;2023-05-19T02:55:11;95149.47;;;8.59;100.00
57801;BME280;43627;42.728;23.256;2023-05-19T02:57:42;95236.59;;;9.09;100.00
57801;BME280;43627;42.728;23.256;2023-05-19T03:00:09;95214.63;;;8.94;100.00
57801;BME280;43627;42.728;23.256;2023-05-19T03:02:36;95192.34;;;8.86;100.00
57801;BME280;43627;42.728;23.256;2023-05-19T03:05:04;95220.22;;;9.00;100.00
57801;BME280;43627;42.728;23.256;2023-05-19T03:07:31;95223.13;;;9.05;100.00
57801;BME280;43627;42.728;23.256;2023-05-19T03:09:59;95233.00;;;9.12;100.00
57801;BME280;43627;42.728;23.256;2023-05-19T03:12:29;95214.72;;;8.91;100.00
57801;BME280;43627;42.728;23.256;2023-05-19T03:14:58;95211.19;;;8.81;100.00
57801;BME280;43627;42.728;23.256;2023-05-19T03:17:25;95196.03;;;8.71;100.00
57801;BME280;43627;42.728;23.256;2023-05-19T03:19:52;95230.72;;;8.88;100.00
57801;BME280;43627;42.728;23.256;2023-05-19T03:22:19;95190.03;;;8.76;100.00
57801;BME280;43627;42.728;23.256;2023-05-19T03:24:47;95221.56;;;8.95;100.00
57801;BME280;43627;42.728;23.256;2023-05-19T03:27:17;95192.97;;;8.91;100.00
57801;BME280;43627;42.728;23.256;2023-05-19T03:29:44;95174.97;;;8.84;100.00
57801;BME280;43627;42.728;23.256;2023-05-19T03:32:11;95234.31;;;9.29;100.00
57801;BME280;43627;42.728;23.256;2023-05-19T03:34:38;95224.44;;;9.23;100.00
57801;BME280;43627;42.728;23.256;2023-05-19T03:37:05;95240.59;;;9.48;100.00
57801;BME280;43627;42.728;23.256;2023-05-19T03:39:33;95237.22;;;9.44;100.00
57801;BME280;43627;42.728;23.256;2023-05-19T03:42:00;95233.66;;;9.65;100.00
57801;BME280;43627;42.728;23.256;2023-05-19T03:44:27;95184.44;;;9.41;100.00
57801;BME280;43627;42.728;23.256;2023-05-19T03:46:55;95242.09;;;9.98;100.00
57801;BME280;43627;42.728;23.256;2023-05-19T03:49:22;95247.91;;;10.28;100.00
57801;BME280;43627;42.728;23.256;2023-05-19T03:51:49;95241.56;;;10.49;100.00
57801;BME280;43627;42.728;23.256;2023-05-19T03:54:16;95252.16;;;10.66;100.00
57801;BME280;43627;42.728;23.256;2023-05-19T03:56:42;95253.84;;;10.63;100.00
57801;BME280;43627;42.728;23.256;2023-05-19T03:59:10;95185.19;;;10.00;100.00
57801;BME280;43627;42.728;23.256;2023-05-19T04:01:37;95264.09;;;10.32;100.00
57801;BME280;43627;42.728;23.256;2023-05-19T04:04:05;95264.88;;;10.32;100.00
57801;BME280;43627;42.728;23.256;2023-05-19T04:06:32;95261.81;;;10.21;100.00
57801;BME280;43627;42.728;23.256;2023-05-19T04:09:01;95204.53;;;9.84;100.00
57801;BME280;43627;42.728;23.256;2023-05-19T04:11:29;95240.63;;;10.16;100.00
57801;BME280;43627;42.728;23.256;2023-05-19T04:13:57;95269.91;;;10.52;100.00
57801;BME280;43627;42.728;23.256;2023-05-19T04:16:28;95224.75;;;10.33;100.00
57801;BME280;43627;42.728;23.256;2023-05-19T04:19:04;95277.16;;;10.82;100.00
57801;BME280;43627;42.728;23.256;2023-05-19T04:21:41;95275.25;;;11.34;100.00
57801;BME280;43627;42.728;23.256;2023-05-19T04:24:11;95265.56;;;11.85;100.00
57801;BME280;43627;42.728;23.256;2023-05-19T04:26:42;95222.31;;;12.31;100.00
57801;BME280;43627;42.728;23.256;2023-05-19T04:29:13;95236.78;;;12.85;100.00
57801;BME280;43627;42.728;23.256;2023-05-19T04:31:44;95231.41;;;13.05;100.00
57801;BME280;43627;42.728;23.256;2023-05-19T04:34:11;95284.19;;;13.80;100.00
57801;BME280;43627;42.728;23.256;2023-05-19T04:36:44;95280.97;;;13.81;100.00
57801;BME280;43627;42.728;23.256;2023-05-19T04:39:28;95289.94;;;13.96;100.00
57801;BME280;43627;42.728;23.256;2023-05-19T04:42:22;95279.63;;;13.91;100.00
57801;BME280;43627;42.728;23.256;2023-05-19T04:45:00;95278.53;;;14.18;100.00
57801;BME280;43627;42.728;23.256;2023-05-19T04:47:45;95168.56;;;13.96;100.00
57801;BME280;43627;42.728;23.256;2023-05-19T04:50:14;95255.56;;;14.51;100.00
57801;BME280;43627;42.728;23.256;2023-05-19T04:52:58;95282.00;;;14.74;100.00
57801;BME280;43627;42.728;23.256;2023-05-19T04:55:26;95284.59;;;15.04;100.00
57801;BME280;43627;42.728;23.256;2023-05-19T04:57:56;95227.81;;;14.28;100.00
57801;BME280;43627;42.728;23.256;2023-05-19T05:00:24;95250.19;;;14.62;100.00
57801;BME280;43627;42.728;23.256;2023-05-19T05:02:52;95231.66;;;14.57;100.00
57801;BME280;43627;42.728;23.256;2023-05-19T05:05:20;95281.16;;;15.09;100.00
57801;BME280;43627;42.728;23.256;2023-05-19T05:07:49;95285.63;;;14.86;100.00
57801;BME280;43627;42.728;23.256;2023-05-19T05:10:31;95292.03;;;14.57;100.00
57801;BME280;43627;42.728;23.256;2023-05-19T05:13:00;95289.78;;;14.55;100.00
57801;BME280;43627;42.728;23.256;2023-05-19T05:15:27;95275.44;;;14.46;100.00
57801;BME280;43627;42.728;23.256;2023-05-19T05:17:55;95207.94;;;14.34;100.00
57801;BME280;43627;42.728;23.256;2023-05-19T05:20:26;95276.63;;;15.06;100.00
57801;BME280;43627;42.728;23.256;2023-05-19T05:22:53;95297.03;;;15.51;100.00
57801;BME280;43627;42.728;23.256;2023-05-19T05:25:21;95287.03;;;15.22;100.00
57801;BME280;43627;42.728;23.256;2023-05-19T05:27:48;95269.19;;;15.38;100.00
57801;BME280;43627;42.728;23.256;2023-05-19T05:30:15;95286.31;;;15.53;100.00
57801;BME280;43627;42.728;23.256;2023-05-19T05:32:43;95213.09;;;14.93;100.00
57801;BME280;43627;42.728;23.256;2023-05-19T05:35:13;95283.84;;;15.29;100.00
57801;BME280;43627;42.728;23.256;2023-05-19T05:37:41;95265.38;;;15.04;100.00
57801;BME280;43627;42.728;23.256;2023-05-19T05:40:08;95274.63;;;15.32;100.00
57801;BME280;43627;42.728;23.256;2023-05-19T05:42:36;95293.22;;;15.43;100.00
57801;BME280;43627;42.728;23.256;2023-05-19T05:45:04;95271.41;;;15.34;100.00
57801;BME280;43627;42.728;23.256;2023-05-19T05:47:32;95221.16;;;15.02;100.00
57801;BME280;43627;42.728;23.256;2023-05-19T05:49:59;95264.13;;;15.31;100.00
57801;BME280;43627;42.728;23.256;2023-05-19T05:52:29;95302.84;;;15.33;100.00
57801;BME280;43627;42.728;23.256;2023-05-19T05:54:56;95228.34;;;14.73;100.00
57801;BME280;43627;42.728;23.256;2023-05-19T05:57:24;95300.13;;;15.33;100.00
57801;BME280;43627;42.728;23.256;2023-05-19T05:59:51;95311.22;;;15.70;100.00
57801;BME280;43627;42.728;23.256;2023-05-19T06:02:18;95235.66;;;15.28;100.00
57801;BME280;43627;42.728;23.256;2023-05-19T06:04:45;95299.00;;;15.45;100.00
57801;BME280;43627;42.728;23.256;2023-05-19T06:07:12;95285.34;;;15.30;100.00
57801;BME280;43627;42.728;23.256;2023-05-19T06:09:39;95299.22;;;15.67;100.00
57801;BME280;43627;42.728;23.256;2023-05-19T06:12:06;95286.91;;;15.63;100.00
57801;BME280;43627;42.728;23.256;2023-05-19T06:14:33;95304.56;;;16.14;100.00
57801;BME280;43627;42.728;23.256;2023-05-19T06:17:00;95312.19;;;16.30;100.00
57801;BME280;43627;42.728;23.256;2023-05-19T06:19:27;95293.03;;;16.10;100.00
57801;BME280;43627;42.728;23.256;2023-05-19T06:21:55;95330.72;;;16.35;100.00
57801;BME280;43627;42.728;23.256;2023-05-19T06:24:22;95296.09;;;16.60;100.00
57801;BME280;43627;42.728;23.256;2023-05-19T06:26:50;95308.31;;;16.53;100.00
57801;BME280;43627;42.728;23.256;2023-05-19T06:29:17;95301.03;;;16.50;100.00
57801;BME280;43627;42.728;23.256;2023-05-19T06:31:44;95319.59;;;16.61;100.00
57801;BME280;43627;42.728;23.256;2023-05-19T06:34:12;95276.22;;;16.39;100.00
57801;BME280;43627;42.728;23.256;2023-05-19T06:36:43;95288.03;;;16.56;100.00
57801;BME280;43627;42.728;23.256;2023-05-19T06:39:10;95313.53;;;17.00;99.59
57801;BME280;43627;42.728;23.256;2023-05-19T06:41:37;95300.47;;;16.83;100.00
57801;BME280;43627;42.728;23.256;2023-05-19T06:44:06;95329.91;;;17.31;98.79
57801;BME280;43627;42.728;23.256;2023-05-19T06:46:34;95317.91;;;17.51;93.07
57801;BME280;43627;42.728;23.256;2023-05-19T06:49:01;95318.25;;;17.76;89.85
57801;BME280;43627;42.728;23.256;2023-05-19T06:51:28;95288.81;;;17.28;86.97
57801;BME280;43627;42.728;23.256;2023-05-19T06:53:55;95300.63;;;17.51;90.21
57801;BME280;43627;42.728;23.256;2023-05-19T06:56:24;95317.97;;;18.07;84.13
57801;BME280;43627;42.728;23.256;2023-05-19T06:58:50;95290.16;;;17.83;84.71
57801;BME280;43627;42.728;23.256;2023-05-19T07:01:17;95294.13;;;17.48;95.92
57801;BME280;43627;42.728;23.256;2023-05-19T07:03:44;95334.78;;;17.70;93.04
57801;BME280;43627;42.728;23.256;2023-05-19T07:06:12;95338.28;;;18.10;88.17
57801;BME280;43627;42.728;23.256;2023-05-19T07:08:39;95321.47;;;17.63;83.61
57801;BME280;43627;42.728;23.256;2023-05-19T07:11:06;95330.50;;;18.25;83.28
57801;BME280;43627;42.728;23.256;2023-05-19T07:13:34;95328.28;;;18.12;84.64
57801;BME280;43627;42.728;23.256;2023-05-19T07:16:00;95335.78;;;18.28;80.92
57801;BME280;43627;42.728;23.256;2023-05-19T07:18:27;95334.03;;;18.31;78.72
57801;BME280;43627;42.728;23.256;2023-05-19T07:20:58;95335.44;;;18.82;70.99
57801;BME280;43627;42.728;23.256;2023-05-19T07:23:25;95328.84;;;19.02;71.49
57801;BME280;43627;42.728;23.256;2023-05-19T07:25:55;95333.00;;;18.68;77.14
57801;BME280;43627;42.728;23.256;2023-05-19T07:28:23;95332.91;;;18.84;80.97
57801;BME280;43627;42.728;23.256;2023-05-19T07:30:50;95337.03;;;18.39;86.76
57801;BME280;43627;42.728;23.256;2023-05-19T07:33:18;95344.75;;;18.79;87.84
57801;BME280;43627;42.728;23.256;2023-05-19T07:35:46;95325.78;;;19.11;78.85
57801;BME280;43627;42.728;23.256;2023-05-19T07:38:13;95340.06;;;19.68;74.57
57801;BME280;43627;42.728;23.256;2023-05-19T07:40:40;95322.91;;;19.81;73.99
57801;BME280;43627;42.728;23.256;2023-05-19T07:43:07;95333.63;;;19.49;69.95
57801;BME280;43627;42.728;23.256;2023-05-19T07:45:34;95305.06;;;19.35;68.98
57801;BME280;43627;42.728;23.256;2023-05-19T07:48:03;95318.03;;;19.57;69.45
57801;BME280;43627;42.728;23.256;2023-05-19T07:50:38;95344.19;;;19.50;71.13
57801;BME280;43627;42.728;23.256;2023-05-19T07:53:19;95264.97;;;19.11;67.83
57801;BME280;43627;42.728;23.256;2023-05-19T07:56:13;95294.84;;;18.49;80.89
57801;BME280;43627;42.728;23.256;2023-05-19T07:58:46;95347.53;;;18.51;83.62
57801;BME280;43627;42.728;23.256;2023-05-19T08:01:13;95341.00;;;18.71;81.79
57801;BME280;43627;42.728;23.256;2023-05-19T08:03:45;95242.66;;;18.35;71.94
57801;BME280;43627;42.728;23.256;2023-05-19T08:06:13;95292.78;;;18.72;75.23
57801;BME280;43627;42.728;23.256;2023-05-19T08:08:43;95273.78;;;18.35;77.34
57801;BME280;43627;42.728;23.256;2023-05-19T08:11:11;95324.91;;;18.75;73.59
57801;BME280;43627;42.728;23.256;2023-05-19T08:13:39;95331.81;;;19.10;75.36
57801;BME280;43627;42.728;23.256;2023-05-19T08:16:09;95320.94;;;19.29;70.50
57801;BME280;43627;42.728;23.256;2023-05-19T08:18:39;95338.16;;;18.94;74.73
57801;BME280;43627;42.728;23.256;2023-05-19T08:21:07;95303.56;;;18.81;73.35
57801;BME280;43627;42.728;23.256;2023-05-19T08:23:34;95321.78;;;19.59;70.15
57801;BME280;43627;42.728;23.256;2023-05-19T08:26:03;95333.19;;;20.16;67.08
57801;BME280;43627;42.728;23.256;2023-05-19T08:28:35;95341.78;;;20.12;62.66
57801;BME280;43627;42.728;23.256;2023-05-19T08:31:02;95327.34;;;20.74;60.21
57801;BME280;43627;42.728;23.256;2023-05-19T08:33:32;95305.19;;;20.74;57.05
57801;BME280;43627;42.728;23.256;2023-05-19T08:36:01;95254.31;;;20.52;55.41
57801;BME280;43627;42.728;23.256;2023-05-19T08:38:28;95251.28;;;20.94;53.15
57801;BME280;43627;42.728;23.256;2023-05-19T08:40:57;95321.53;;;20.23;59.99
57801;BME280;43627;42.728;23.256;2023-05-19T08:43:25;95312.59;;;20.11;64.99
57801;BME280;43627;42.728;23.256;2023-05-19T08:45:58;95261.56;;;19.77;66.84
57801;BME280;43627;42.728;23.256;2023-05-19T08:48:28;95310.13;;;20.32;67.63
57801;BME280;43627;42.728;23.256;2023-05-19T08:51:26;95300.88;;;20.00;63.63
57801;BME280;43627;42.728;23.256;2023-05-19T08:54:13;95315.34;;;20.41;58.33
57801;BME280;43627;42.728;23.256;2023-05-19T08:56:43;95231.31;;;19.49;59.54
57801;BME280;43627;42.728;23.256;2023-05-19T08:59:13;95282.72;;;19.68;59.30
57801;BME280;43627;42.728;23.256;2023-05-19T09:01:44;95279.88;;;19.44;61.84
57801;BME280;43627;42.728;23.256;2023-05-19T09:04:12;95296.97;;;19.43;62.21
57801;BME280;43627;42.728;23.256;2023-05-19T09:06:39;95251.13;;;19.17;62.99
57801;BME280;43627;42.728;23.256;2023-05-19T09:09:07;95311.03;;;19.45;61.50
57801;BME280;43627;42.728;23.256;2023-05-19T09:11:35;95246.63;;;19.14;63.15
57801;BME280;43627;42.728;23.256;2023-05-19T09:14:04;95183.72;;;19.26;61.91
57801;BME280;43627;42.728;23.256;2023-05-19T09:16:31;95292.22;;;19.79;61.78
57801;BME280;43627;42.728;23.256;2023-05-19T09:18:59;95300.25;;;20.12;60.37
57801;BME280;43627;42.728;23.256;2023-05-19T09:21:30;95230.50;;;19.89;57.89
57801;BME280;43627;42.728;23.256;2023-05-19T09:24:02;95295.63;;;20.50;57.99
57801;BME280;43627;42.728;23.256;2023-05-19T09:26:40;95268.31;;;20.11;55.33
57801;BME280;43627;42.728;23.256;2023-05-19T09:29:11;95288.53;;;20.55;55.93
57801;BME280;43627;42.728;23.256;2023-05-19T09:31:50;95241.53;;;20.68;55.94
57801;BME280;43627;42.728;23.256;2023-05-19T09:34:18;95274.03;;;20.68;54.40
57801;BME280;43627;42.728;23.256;2023-05-19T09:36:46;95222.19;;;19.89;56.31
57801;BME280;43627;42.728;23.256;2023-05-19T09:39:20;95285.41;;;20.40;56.55
57801;BME280;43627;42.728;23.256;2023-05-19T09:41:54;95250.69;;;20.09;54.92
57801;BME280;43627;42.728;23.256;2023-05-19T09:44:25;95250.50;;;20.31;57.63
57801;BME280;43627;42.728;23.256;2023-05-19T09:46:57;95248.75;;;20.77;53.35
57801;BME280;43627;42.728;23.256;2023-05-19T09:49:27;95278.94;;;21.18;53.89
57801;BME280;43627;42.728;23.256;2023-05-19T09:52:01;95283.53;;;21.53;58.20
57801;BME280;43627;42.728;23.256;2023-05-19T09:54:29;95275.78;;;21.33;52.72
57801;BME280;43627;42.728;23.256;2023-05-19T09:56:59;95268.94;;;21.53;51.55
57801;BME280;43627;42.728;23.256;2023-05-19T09:59:27;95234.91;;;21.15;51.37
57801;BME280;43627;42.728;23.256;2023-05-19T10:02:00;95215.00;;;20.54;52.56
57801;BME280;43627;42.728;23.256;2023-05-19T10:04:29;95253.94;;;20.86;52.02
57801;BME280;43627;42.728;23.256;2023-05-19T10:07:02;95234.28;;;20.84;51.92
57801;BME280;43627;42.728;23.256;2023-05-19T10:09:31;95223.44;;;20.86;50.40
57801;BME280;43627;42.728;23.256;2023-05-19T10:11:59;95264.22;;;21.29;51.17
57801;BME280;43627;42.728;23.256;2023-05-19T10:14:27;95258.97;;;21.44;47.67
57801;BME280;43627;42.728;23.256;2023-05-19T10:16:56;95259.34;;;20.73;47.42
57801;BME280;43627;42.728;23.256;2023-05-19T10:19:26;95267.31;;;20.33;47.86
57801;BME280;43627;42.728;23.256;2023-05-19T10:21:54;95246.59;;;19.91;48.32
57801;BME280;43627;42.728;23.256;2023-05-19T10:24:21;95200.25;;;19.67;48.81
57801;BME280;43627;42.728;23.256;2023-05-19T10:27:01;95270.66;;;20.26;49.45
57801;BME280;43627;42.728;23.256;2023-05-19T10:29:32;95217.50;;;19.79;50.23
57801;BME280;43627;42.728;23.256;2023-05-19T10:32:05;95203.25;;;19.69;49.44
57801;BME280;43627;42.728;23.256;2023-05-19T10:40:28;95257.63;;;20.21;50.15
57801;BME280;43627;42.728;23.256;2023-05-19T10:45:33;95219.41;;;19.89;50.25
57801;BME280;43627;42.728;23.256;2023-05-19T10:48:02;95236.16;;;20.27;49.35
57801;BME280;43627;42.728;23.256;2023-05-19T10:50:35;95245.47;;;20.54;48.87
57801;BME280;43627;42.728;23.256;2023-05-19T10:53:03;95213.66;;;20.61;49.25
57801;BME280;43627;42.728;23.256;2023-05-19T10:55:54;95249.78;;;21.11;50.64
57801;BME280;43627;42.728;23.256;2023-05-19T11:01:13;95214.19;;;21.53;46.01
57801;BME280;43627;42.728;23.256;2023-05-19T11:06:30;95253.34;;;21.82;45.11
57801;BME280;43627;42.728;23.256;2023-05-19T11:09:14;95197.63;;;21.48;45.82
57801;BME280;43627;42.728;23.256;2023-05-19T11:11:49;95234.06;;;22.03;46.13
57801;BME280;43627;42.728;23.256;2023-05-19T11:14:18;95251.34;;;21.63;45.77
57801;BME280;43627;42.728;23.256;2023-05-19T11:16:50;95242.03;;;21.29;45.91
57801;BME280;43627;42.728;23.256;2023-05-19T11:19:27;95187.09;;;20.52;47.93
57801;BME280;43627;42.728;23.256;2023-05-19T11:21:56;95236.28;;;20.65;46.91
57801;BME280;43627;42.728;23.256;2023-05-19T11:24:45;95241.88;;;20.35;46.46
57801;BME280;43627;42.728;23.256;2023-05-19T11:27:25;95230.00;;;20.64;46.92
57801;BME280;43627;42.728;23.256;2023-05-19T11:29:57;95230.47;;;21.25;45.32
57801;BME280;43627;42.728;23.256;2023-05-19T11:32:29;95228.66;;;21.78;44.35
57801;BME280;43627;42.728;23.256;2023-05-19T11:34:56;95236.69;;;22.40;43.63
57801;BME280;43627;42.728;23.256;2023-05-19T11:37:26;95229.44;;;22.37;42.74
57801;BME280;43627;42.728;23.256;2023-05-19T11:39:57;95220.75;;;22.54;43.86
57801;BME280;43627;42.728;23.256;2023-05-19T11:42:26;95218.81;;;22.22;42.30
57801;BME280;43627;42.728;23.256;2023-05-19T11:44:54;95232.66;;;21.96;43.77
57801;BME280;43627;42.728;23.256;2023-05-19T11:47:21;95185.16;;;20.66;43.92
57801;BME280;43627;42.728;23.256;2023-05-19T11:49:50;95225.84;;;20.52;45.61
57801;BME280;43627;42.728;23.256;2023-05-19T11:52:21;95230.97;;;20.18;47.12
57801;BME280;43627;42.728;23.256;2023-05-19T11:54:48;95230.97;;;20.18;45.45
57801;BME280;43627;42.728;23.256;2023-05-19T11:57:18;95175.63;;;19.93;46.40
57801;BME280;43627;42.728;23.256;2023-05-19T11:59:45;95175.91;;;20.14;45.34
57801;BME280;43627;42.728;23.256;2023-05-19T12:02:19;95227.47;;;20.66;45.84
57801;BME280;43627;42.728;23.256;2023-05-19T12:04:48;95191.47;;;20.17;46.08
57801;BME280;43627;42.728;23.256;2023-05-19T12:07:16;95237.34;;;20.13;48.61
57801;BME280;43627;42.728;23.256;2023-05-19T12:09:45;95234.91;;;20.04;52.90
57801;BME280;43627;42.728;23.256;2023-05-19T12:12:18;95218.81;;;20.02;55.29
57801;BME280;43627;42.728;23.256;2023-05-19T12:14:47;95157.28;;;19.30;54.30
57801;BME280;43627;42.728;23.256;2023-05-19T12:17:16;95197.91;;;19.11;58.88
57801;BME280;43627;42.728;23.256;2023-05-19T12:19:44;95261.13;;;18.79;61.37
57801;BME280;43627;42.728;23.256;2023-05-19T12:22:13;95280.59;;;18.23;69.16
57801;BME280;43627;42.728;23.256;2023-05-19T12:24:41;95293.63;;;17.44;90.05
57801;BME280;43627;42.728;23.256;2023-05-19T12:27:27;95288.22;;;16.90;100.00
57801;BME280;43627;42.728;23.256;2023-05-19T12:29:55;95233.00;;;16.03;100.00
57801;BME280;43627;42.728;23.256;2023-05-19T12:32:26;95219.50;;;15.41;100.00
57801;BME280;43627;42.728;23.256;2023-05-19T12:34:55;95234.19;;;15.33;100.00
57801;BME280;43627;42.728;23.256;2023-05-19T12:37:25;95271.13;;;15.58;100.00
57801;BME280;43627;42.728;23.256;2023-05-19T12:39:54;95284.38;;;15.59;100.00
57801;BME280;43627;42.728;23.256;2023-05-19T12:42:22;95224.81;;;15.19;100.00
57801;BME280;43627;42.728;23.256;2023-05-19T12:44:50;95256.38;;;15.29;100.00
57801;BME280;43627;42.728;23.256;2023-05-19T12:47:19;95227.41;;;15.28;100.00
57801;BME280;43627;42.728;23.256;2023-05-19T12:49:55;95258.81;;;15.79;100.00
57801;BME280;43627;42.728;23.256;2023-05-19T12:52:22;95252.72;;;16.01;100.00
57801;BME280;43627;42.728;23.256;2023-05-19T12:54:57;95245.09;;;16.22;100.00
57801;BME280;43627;42.728;23.256;2023-05-19T12:57:25;95217.94;;;16.41;100.00
57801;BME280;43627;42.728;23.256;2023-05-19T12:59:59;95244.88;;;16.85;99.12
57801;BME280;43627;42.728;23.256;2023-05-19T13:02:26;95222.91;;;16.96;93.61
57801;BME280;43627;42.728;23.256;2023-05-19T13:04:53;95251.00;;;17.28;83.37
57801;BME280;43627;42.728;23.256;2023-05-19T13:07:20;95244.50;;;17.59;82.55
57801;BME280;43627;42.728;23.256;2023-05-19T13:09:47;95190.59;;;17.19;75.61
57801;BME280;43627;42.728;23.256;2023-05-19T13:12:14;95230.47;;;17.80;73.60
57801;BME280;43627;42.728;23.256;2023-05-19T13:14:41;95229.47;;;17.88;73.09
57801;BME280;43627;42.728;23.256;2023-05-19T13:17:09;95238.13;;;18.37;71.77
57801;BME280;43627;42.728;23.256;2023-05-19T13:19:35;95235.31;;;18.65;62.19
57801;BME280;43627;42.728;23.256;2023-05-19T13:22:03;95200.47;;;18.45;62.03
57801;BME280;43627;42.728;23.256;2023-05-19T13:24:30;95211.94;;;18.72;64.67
57801;BME280;43627;42.728;23.256;2023-05-19T13:26:57;95188.19;;;18.99;59.51
57801;BME280;43627;42.728;23.256;2023-05-19T13:29:24;95237.50;;;19.66;57.60
57801;BME280;43627;42.728;23.256;2023-05-19T13:31:53;95237.25;;;19.94;55.44
57801;BME280;43627;42.728;23.256;2023-05-19T13:34:20;95162.44;;;19.81;55.18
57801;BME280;43627;42.728;23.256;2023-05-19T13:36:47;95215.94;;;20.13;54.04